Time;durP1;ratioP1;P1;durP2;ratioP2;P2;SDS_P1;SDS_P2;PMS_P1;PMS_P2;Temp;Humidity;BMP_temperature;BMP_pressure;BME280_temperature;BME280_humidity;BME280_pressure;Samples;Min_cycle;Max_cycle;Signal;HPM_P1;HPM_P2
2023/08/02 06:32:38;;;;;;;13.77;4.30;;;25.90;96.70;;;;;;5046803;28;20068;-73
2023/08/02 06:35:07;;;;;;;12.40;4.47;;;26.00;96.70;;;;;;5046212;28;20080;-73
2023/08/02 06:37:35;;;;;;;10.13;4.40;;;26.00;96.70;;;;;;5046451;28;20049;-73
2023/08/02 06:40:04;;;;;;;14.75;5.20;;;26.00;96.70;;;;;;5044910;28;20051;-73
2023/08/02 06:42:32;;;;;;;13.30;5.70;;;25.90;96.70;;;;;;5045632;28;20045;-72
2023/08/02 06:45:00;;;;;;;10.57;4.78;;;25.80;96.70;;;;;;5044241;28;20044;-73
2023/08/02 06:47:28;;;;;;;14.65;5.00;;;25.90;96.70;;;;;;5044921;28;20102;-73
2023/08/02 06:49:58;;;;;;;13.48;4.45;;;26.00;96.70;;;;;;5044759;28;20052;-73
2023/08/02 06:52:28;;;;;;;15.88;5.60;;;26.00;96.70;;;;;;5046126;28;20037;-72
2023/08/02 06:54:56;;;;;;;13.88;5.30;;;26.10;96.70;;;;;;5044895;28;20139;-73
2023/08/02 06:57:24;;;;;;;15.23;5.63;;;26.10;96.70;;;;;;5045302;28;20040;-72
2023/08/02 06:59:55;;;;;;;11.65;5.28;;;26.30;96.70;;;;;;5046370;28;20083;-72
2023/08/02 07:02:23;;;;;;;12.15;4.95;;;26.30;96.70;;;;;;5046267;28;20107;-73
2023/08/02 07:04:51;;;;;;;15.00;4.97;;;26.40;96.70;;;;;;5044135;28;20067;-73
2023/08/02 07:07:21;;;;;;;14.07;5.25;;;26.30;96.70;;;;;;5045584;28;20076;-73
2023/08/02 07:09:49;;;;;;;14.70;5.38;;;26.30;96.70;;;;;;5046349;28;20469;-72
2023/08/02 07:12:17;;;;;;;12.40;5.35;;;26.30;96.70;;;;;;5045453;28;20512;-73
2023/08/02 07:14:45;;;;;;;15.35;5.55;;;26.30;96.70;;;;;;5044794;28;20651;-74
2023/08/02 07:17:13;;;;;;;12.65;4.90;;;26.30;96.70;;;;;;5044831;28;20063;-73
2023/08/02 07:19:41;;;;;;;17.65;5.63;;;26.30;96.70;;;;;;5046006;28;20159;-74
2023/08/02 07:22:10;;;;;;;13.68;5.07;;;26.40;96.70;;;;;;5045073;28;20048;-73
2023/08/02 07:24:39;;;;;;;17.08;5.63;;;26.60;96.70;;;;;;5044178;28;20044;-73
2023/08/02 07:27:09;;;;;;;11.85;5.03;;;26.80;96.70;;;;;;5044699;28;20091;-74
2023/08/02 07:29:37;;;;;;;15.60;5.28;;;26.90;96.70;;;;;;5044374;28;20462;-74
2023/08/02 07:32:06;;;;;;;11.25;4.78;;;27.00;96.70;;;;;;5062375;28;20053;-74
2023/08/02 07:34:34;;;;;;;21.08;6.35;;;27.10;96.70;;;;;;5065483;28;20033;-74
2023/08/02 07:37:02;;;;;;;12.70;4.75;;;27.10;96.70;;;;;;5048714;28;20199;-74
2023/08/02 07:39:30;;;;;;;18.10;5.05;;;27.10;96.70;;;;;;5064983;28;20417;-73
2023/08/02 07:42:00;;;;;;;15.88;5.30;;;27.20;96.70;;;;;;5064267;28;20544;-74
2023/08/02 07:44:28;;;;;;;13.80;5.30;;;27.30;96.70;;;;;;5064615;28;20047;-74
2023/08/02 07:46:56;;;;;;;13.85;4.35;;;27.30;96.70;;;;;;5065715;28;20379;-73
2023/08/02 07:49:24;;;;;;;11.43;4.43;;;27.40;96.70;;;;;;5065290;28;20047;-73
2023/08/02 07:51:53;;;;;;;11.52;4.50;;;27.40;96.70;;;;;;5063562;28;20048;-73
2023/08/02 07:54:21;;;;;;;10.95;4.25;;;27.40;96.70;;;;;;5065014;28;20946;-72
2023/08/02 07:56:49;;;;;;;14.25;5.00;;;27.30;96.70;;;;;;5065558;28;20127;-73
2023/08/02 07:59:19;;;;;;;8.80;3.65;;;27.30;96.70;;;;;;5063603;28;20044;-73
2023/08/02 08:01:47;;;;;;;10.98;4.45;;;27.30;96.70;;;;;;5064253;28;20040;-74
2023/08/02 08:04:15;;;;;;;10.50;4.00;;;27.40;96.70;;;;;;5063142;28;20048;-75
2023/08/02 08:06:47;;;;;;;12.25;4.35;;;27.40;96.70;;;;;;5065325;28;20040;-73
2023/08/02 08:09:20;;;;;;;12.65;4.28;;;27.40;96.70;;;;;;5063489;28;20067;-73
2023/08/02 08:11:48;;;;;;;12.23;3.75;;;27.40;96.70;;;;;;5063672;28;20071;-73
2023/08/02 08:14:18;;;;;;;11.20;4.50;;;27.50;96.70;;;;;;5063103;28;20440;-73
2023/08/02 08:16:46;;;;;;;10.20;4.05;;;27.40;96.70;;;;;;5064071;28;20413;-74
2023/08/02 08:19:14;;;;;;;11.68;3.83;;;27.50;96.70;;;;;;5063100;28;20040;-74
2023/08/02 08:21:43;;;;;;;10.45;3.53;;;27.60;96.70;;;;;;5064693;28;20068;-74
2023/08/02 08:24:11;;;;;;;10.23;3.63;;;27.80;96.70;;;;;;5064857;28;20051;-74
2023/08/02 08:26:39;;;;;;;9.32;3.85;;;28.00;96.70;;;;;;5065070;28;20039;-74
2023/08/02 08:29:08;;;;;;;11.30;3.85;;;28.10;96.70;;;;;;5063297;28;20048;-74
2023/08/02 08:31:38;;;;;;;10.95;3.55;;;28.00;96.70;;;;;;5062781;28;20057;-73
2023/08/02 08:34:11;;;;;;;11.50;3.92;;;28.00;96.70;;;;;;5046914;28;20048;-74
2023/08/02 08:36:39;;;;;;;8.13;3.17;;;28.20;96.70;;;;;;5063211;28;20048;-74
2023/08/02 08:39:07;;;;;;;8.10;3.42;;;28.30;96.70;;;;;;5063079;28;20449;-73
2023/08/02 08:41:35;;;;;;;12.65;3.60;;;28.50;96.70;;;;;;5064555;28;20048;-74
2023/08/02 08:44:04;;;;;;;9.30;3.60;;;28.50;96.70;;;;;;5063465;28;20036;-73
2023/08/02 08:46:33;;;;;;;9.20;3.50;;;28.40;96.70;;;;;;5056847;28;20045;-73
2023/08/02 08:49:03;;;;;;;8.13;3.42;;;28.40;96.70;;;;;;5064511;28;20055;-74
2023/08/02 08:51:34;;;;;;;12.07;3.47;;;28.30;96.70;;;;;;5061348;28;20820;-73
2023/08/02 08:54:08;;;;;;;6.85;3.60;;;28.30;96.70;;;;;;5061163;28;20048;-74
2023/08/02 08:56:40;;;;;;;10.48;3.53;;;28.30;96.70;;;;;;5062960;28;20060;-75
2023/08/02 08:59:09;;;;;;;9.82;4.03;;;28.20;96.70;;;;;;5063776;28;20426;-73
2023/08/02 09:01:38;;;;;;;9.07;3.15;;;28.20;96.70;;;;;;5062710;28;20071;-73
2023/08/02 09:04:09;;;;;;;10.60;3.67;;;28.20;96.70;;;;;;5064179;28;20131;-73
2023/08/02 09:06:37;;;;;;;12.60;3.65;;;28.30;96.70;;;;;;5064582;28;20517;-74
2023/08/02 09:09:05;;;;;;;12.38;4.22;;;28.40;96.70;;;;;;5063950;28;20064;-73
2023/08/02 09:11:34;;;;;;;9.15;3.50;;;28.50;96.70;;;;;;5062297;28;20060;-74
2023/08/02 09:14:12;;;;;;;10.55;3.10;;;28.50;96.70;;;;;;5043930;28;20111;-74
2023/08/02 09:16:58;;;;;;;8.45;3.35;;;28.50;96.70;;;;;;5062455;28;20468;-73
2023/08/02 09:19:30;;;;;;;9.55;3.67;;;28.40;96.70;;;;;;5055007;28;20965;-73
2023/08/02 09:22:08;;;;;;;7.53;3.15;;;28.40;96.70;;;;;;5045914;28;20126;-73
2023/08/02 09:24:38;;;;;;;8.25;3.53;;;28.50;96.70;;;;;;5063755;28;20066;-74
2023/08/02 09:27:07;;;;;;;11.15;3.25;;;28.50;96.70;;;;;;5062572;28;20492;-73
2023/08/02 09:29:44;;;;;;;11.30;3.58;;;28.60;96.70;;;;;;5062778;28;20089;-74
2023/08/02 09:32:12;;;;;;;10.88;3.95;;;28.80;96.70;;;;;;5063316;28;20126;-73
2023/08/02 09:34:47;;;;;;;10.30;3.97;;;28.80;96.70;;;;;;5063847;28;20037;-73
2023/08/02 09:37:16;;;;;;;12.50;3.78;;;28.90;96.70;;;;;;5061565;28;20498;-72
2023/08/02 09:39:50;;;;;;;10.60;3.65;;;28.90;96.70;;;;;;5054858;28;20052;-73
2023/08/02 09:42:24;;;;;;;9.35;3.30;;;28.90;96.70;;;;;;5062840;28;20116;-72
2023/08/02 09:44:54;;;;;;;10.82;3.65;;;28.90;96.70;;;;;;5061677;28;20055;-73
2023/08/02 09:47:23;;;;;;;11.43;3.20;;;28.80;96.70;;;;;;5078346;28;20441;-73
2023/08/02 09:50:07;;;;;;;10.27;3.83;;;28.80;96.70;;;;;;5062887;28;20097;-73
2023/08/02 09:52:38;;;;;;;9.07;3.28;;;28.70;96.70;;;;;;5063341;28;20049;-73
2023/08/02 09:55:07;;;;;;;8.75;3.28;;;28.70;96.70;;;;;;5063737;28;20047;-73
2023/08/02 09:57:36;;;;;;;10.98;3.88;;;28.70;96.70;;;;;;5061191;28;20179;-73
2023/08/02 10:00:07;;;;;;;8.43;3.53;;;28.70;96.70;;;;;;5062961;28;20044;-73
2023/08/02 10:02:38;;;;;;;11.20;3.78;;;28.70;96.70;;;;;;5063887;28;20076;-74
2023/08/02 10:05:12;;;;;;;7.93;3.50;;;28.70;96.70;;;;;;5063031;28;20068;-73
2023/08/02 10:07:45;;;;;;;9.45;3.70;;;28.70;96.70;;;;;;5041888;28;20055;-73
2023/08/02 10:10:18;;;;;;;12.38;4.05;;;29.00;96.70;;;;;;5061141;28;20048;-73
2023/08/02 10:12:52;;;;;;;11.50;3.55;;;29.20;96.70;;;;;;5044990;28;20099;-74
2023/08/02 10:15:21;;;;;;;9.00;3.60;;;29.30;96.70;;;;;;5061328;28;20521;-73
2023/08/02 10:17:51;;;;;;;12.52;4.10;;;29.30;96.70;;;;;;5061695;28;20041;-73
2023/08/02 10:20:24;;;;;;;8.10;3.28;;;29.50;96.70;;;;;;5062550;28;20076;-73
2023/08/02 10:22:54;;;;;;;11.73;3.47;;;29.70;96.70;;;;;;5061839;28;20056;-73
2023/08/02 10:25:23;;;;;;;10.05;3.47;;;29.80;96.70;;;;;;5063326;28;20131;-74
2023/08/02 10:27:52;;;;;;;8.00;3.45;;;29.80;96.70;;;;;;5063391;28;20056;-74
2023/08/02 10:30:21;;;;;;;9.93;3.60;;;30.00;96.70;;;;;;5061526;28;20059;-74
2023/08/02 10:33:12;;;;;;;10.77;3.60;;;29.90;96.70;;;;;;5062957;28;20424;-73
2023/08/02 10:36:01;;;;;;;8.55;2.75;;;29.70;96.70;;;;;;5058782;28;20048;-74
2023/08/02 10:38:47;;;;;;;11.15;3.15;;;29.70;96.70;;;;;;5062300;28;20635;-74
2023/08/02 10:41:17;;;;;;;10.52;3.17;;;29.80;96.70;;;;;;5064206;28;20075;-74
2023/08/02 10:44:13;;;;;;;8.00;3.30;;;30.20;96.70;;;;;;5065847;28;20036;-74
2023/08/02 10:46:42;;;;;;;12.93;4.35;;;30.10;96.70;;;;;;5034539;28;20761;-73
2023/08/02 10:49:36;;;;;;;11.25;3.75;;;30.00;96.70;;;;;;5064055;28;20581;-75
2023/08/02 10:52:28;;;;;;;5.10;3.00;;;29.80;96.70;;;;;;5063431;28;20049;-74
2023/08/02 10:55:13;;;;;;;7.00;3.45;;;29.60;96.70;;;;;;5059519;28;20160;-75
2023/08/02 10:58:07;;;;;;;7.55;3.28;;;29.50;96.70;;;;;;5064190;28;20056;-75
2023/08/02 11:00:39;;;;;;;8.57;3.72;;;29.40;96.70;;;;;;5061061;28;20044;-75
2023/08/02 11:03:08;;;;;;;5.32;3.20;;;29.30;96.70;;;;;;5065326;28;20564;-74
2023/08/02 11:05:39;;;;;;;8.63;3.10;;;29.40;96.70;;;;;;5064219;28;20052;-75
2023/08/02 11:08:09;;;;;;;8.15;3.10;;;29.40;96.70;;;;;;5064017;28;20048;-77
2023/08/02 11:10:49;;;;;;;6.10;3.22;;;29.40;96.70;;;;;;5064921;28;20048;-76
2023/08/02 11:13:18;;;;;;;7.00;3.03;;;29.80;96.70;;;;;;5063951;28;20548;-75
2023/08/02 11:15:47;;;;;;;6.85;3.20;;;30.00;96.70;;;;;;5047812;28;20121;-75
2023/08/02 11:18:17;;;;;;;8.18;2.95;;;30.20;96.70;;;;;;5064639;28;20051;-75
2023/08/02 11:21:07;;;;;;;10.02;3.30;;;30.30;96.70;;;;;;5062377;28;20122;-75
2023/08/02 11:23:38;;;;;;;7.28;3.22;;;30.40;96.70;;;;;;5064322;28;20497;-75
2023/08/02 11:26:27;;;;;;;12.05;3.55;;;30.40;96.70;;;;;;5043365;28;20118;-76
2023/08/02 11:29:15;;;;;;;8.02;3.10;;;30.20;96.70;;;;;;5050566;28;20060;-75
2023/08/02 11:31:44;;;;;;;7.68;2.92;;;30.00;96.70;;;;;;5065164;28;20045;-74
2023/08/02 11:34:19;;;;;;;8.45;3.42;;;29.90;96.70;;;;;;5064139;28;20532;-75
2023/08/02 11:36:50;;;;;;;7.43;2.67;;;30.00;96.70;;;;;;5065494;28;20044;-75
2023/08/02 11:39:20;;;;;;;9.15;3.22;;;30.30;96.70;;;;;;5063651;28;20044;-75
2023/08/02 11:42:02;;;;;;;8.07;2.90;;;30.50;96.70;;;;;;5066281;28;20135;-75
2023/08/02 11:44:30;;;;;;;7.93;2.80;;;30.70;96.70;;;;;;5058341;28;21504;-75
2023/08/02 11:47:00;;;;;;;7.53;3.08;;;30.80;96.70;;;;;;5065365;28;20043;-76
2023/08/02 11:49:29;;;;;;;5.80;2.58;;;30.90;96.70;;;;;;5064209;28;20127;-76
2023/08/02 11:52:01;;;;;;;7.82;3.25;;;31.10;96.70;;;;;;5064519;28;20065;-77
2023/08/02 11:54:31;;;;;;;6.18;3.22;;;31.20;96.70;;;;;;5064274;28;20040;-75
2023/08/02 11:57:01;;;;;;;11.27;3.58;;;31.10;96.70;;;;;;5067386;28;20506;-76
2023/08/02 11:59:29;;;;;;;9.18;3.28;;;31.10;96.70;;;;;;5062975;28;20094;-76
2023/08/02 12:01:57;;;;;;;11.00;3.80;;;31.20;96.70;;;;;;5063491;28;20064;-75
2023/08/02 12:04:36;;;;;;;8.27;3.38;;;30.90;96.70;;;;;;5046496;28;20123;-77
2023/08/02 12:07:05;;;;;;;8.40;2.88;;;30.90;96.70;;;;;;5063197;28;20064;-76
2023/08/02 12:09:43;;;;;;;7.07;2.65;;;31.10;96.70;;;;;;5063775;28;20928;-74
2023/08/02 12:12:11;;;;;;;9.90;3.28;;;31.20;96.70;;;;;;5064653;28;20123;-76
2023/08/02 12:14:39;;;;;;;9.18;3.30;;;31.50;96.70;;;;;;5064265;28;20048;-77
2023/08/02 12:17:16;;;;;;;7.53;3.20;;;31.50;96.70;;;;;;5064256;28;20070;-76
2023/08/02 12:19:44;;;;;;;10.57;3.42;;;31.60;96.70;;;;;;5056236;28;20056;-76
2023/08/02 12:22:16;;;;;;;7.03;2.85;;;31.50;96.70;;;;;;5064350;28;20036;-76
2023/08/02 12:25:03;;;;;;;8.38;2.97;;;31.50;96.70;;;;;;5062889;28;20049;-75
2023/08/02 12:27:31;;;;;;;8.40;2.92;;;31.70;96.70;;;;;;5046185;28;20097;-76
2023/08/02 12:30:08;;;;;;;8.63;3.00;;;31.90;96.70;;;;;;5064160;28;20505;-75
2023/08/02 12:32:37;;;;;;;5.22;2.80;;;31.90;96.70;;;;;;5064917;28;20078;-74
2023/08/02 12:35:08;;;;;;;8.40;3.30;;;31.80;96.70;;;;;;5064241;28;20044;-75
2023/08/02 12:37:39;;;;;;;8.68;3.28;;;31.80;96.70;;;;;;5078872;28;20356;-73
2023/08/02 12:40:09;;;;;;;6.95;3.15;;;31.60;96.70;;;;;;5062184;28;20509;-74
2023/08/02 12:42:38;;;;;;;6.30;2.80;;;31.50;96.70;;;;;;5066981;28;20044;-75
2023/08/02 12:45:15;;;;;;;6.38;2.90;;;31.50;96.70;;;;;;5061906;28;20151;-76
2023/08/02 12:47:45;;;;;;;6.75;3.15;;;31.70;96.70;;;;;;5062246;28;20477;-75
2023/08/02 12:50:13;;;;;;;5.35;3.15;;;31.80;96.70;;;;;;5062172;28;20067;-76
2023/08/02 12:52:41;;;;;;;6.93;3.08;;;32.10;96.70;;;;;;5064799;28;20036;-77
2023/08/02 12:55:11;;;;;;;7.95;2.97;;;32.10;96.70;;;;;;5065129;28;20093;-76
2023/08/02 12:57:39;;;;;;;8.15;3.28;;;32.00;96.70;;;;;;5062913;28;20120;-76
2023/08/02 13:00:08;;;;;;;8.63;3.50;;;31.90;96.70;;;;;;5062079;28;20146;-75
2023/08/02 13:02:38;;;;;;;8.63;3.45;;;31.80;96.70;;;;;;5045494;28;20045;-75
2023/08/02 13:05:07;;;;;;;7.78;3.05;;;31.80;96.70;;;;;;5063987;28;20573;-74
2023/08/02 13:07:35;;;;;;;8.35;3.30;;;31.80;96.70;;;;;;5064243;28;20040;-74
2023/08/02 13:10:07;;;;;;;7.47;3.22;;;31.80;96.70;;;;;;5062834;28;20044;-74
2023/08/02 13:12:37;;;;;;;7.70;2.80;;;32.00;96.70;;;;;;5063525;28;20124;-75
2023/08/02 13:15:06;;;;;;;8.10;2.72;;;32.00;96.70;;;;;;5061859;28;20059;-75
2023/08/02 13:17:37;;;;;;;7.03;3.22;;;32.00;96.70;;;;;;5063915;28;20045;-75
2023/08/02 13:20:06;;;;;;;9.07;2.90;;;31.90;96.70;;;;;;5063628;28;20051;-75
2023/08/02 13:22:34;;;;;;;9.95;2.90;;;32.00;96.70;;;;;;5063875;28;20045;-75
2023/08/02 13:25:03;;;;;;;5.38;2.63;;;32.10;96.70;;;;;;5062165;28;20067;-73
2023/08/02 13:27:34;;;;;;;6.95;3.05;;;32.30;96.70;;;;;;5050498;28;20036;-74
2023/08/02 13:30:05;;;;;;;6.45;2.85;;;32.50;96.70;;;;;;5045298;28;20052;-74
2023/08/02 13:32:36;;;;;;;6.32;2.67;;;32.50;96.70;;;;;;5063668;28;20052;-75
2023/08/02 13:35:06;;;;;;;9.45;3.03;;;32.50;96.70;;;;;;5054029;28;20080;-74
2023/08/02 13:37:35;;;;;;;7.47;3.50;;;32.40;96.70;;;;;;5063615;28;20045;-75
2023/08/02 13:40:04;;;;;;;7.50;3.05;;;32.70;96.70;;;;;;5053714;28;20087;-75
2023/08/02 13:42:33;;;;;;;7.57;3.22;;;32.70;96.70;;;;;;5066895;28;20060;-74
2023/08/02 13:45:03;;;;;;;5.30;2.63;;;32.90;96.70;;;;;;5061853;28;20120;-74
2023/08/02 13:47:31;;;;;;;5.72;2.63;;;32.90;96.70;;;;;;5063806;28;20044;-74
2023/08/02 13:49:59;;;;;;;6.32;2.65;;;32.90;96.70;;;;;;5063319;28;20647;-74
2023/08/02 13:52:27;;;;;;;6.90;3.10;;;33.00;96.70;;;;;;5078710;28;20048;-74
2023/08/02 13:54:55;;;;;;;24.80;6.60;;;33.10;96.70;;;;;;5063361;28;20044;-75
2023/08/02 13:57:23;;;;;;;9.30;3.38;;;32.90;96.70;;;;;;5044846;28;20749;-75
2023/08/02 13:59:51;;;;;;;7.07;3.03;;;33.20;96.70;;;;;;5062082;28;20047;-75
2023/08/02 14:02:21;;;;;;;7.30;2.97;;;33.20;96.70;;;;;;5062615;28;20044;-74
2023/08/02 14:04:49;;;;;;;11.13;3.20;;;33.30;96.70;;;;;;5059247;28;20041;-75
2023/08/02 14:07:17;;;;;;;8.93;3.25;;;33.50;96.70;;;;;;5061636;28;20086;-74
2023/08/02 14:09:46;;;;;;;8.07;3.08;;;33.40;96.70;;;;;;5063368;28;20517;-74
2023/08/02 14:12:14;;;;;;;9.45;3.50;;;33.50;96.70;;;;;;5061752;28;20044;-75
2023/08/02 14:14:43;;;;;;;6.97;3.20;;;33.60;96.70;;;;;;5061686;28;20094;-72
2023/08/02 14:17:11;;;;;;;6.88;2.58;;;33.60;96.70;;;;;;5065673;28;20102;-74
2023/08/02 14:19:41;;;;;;;9.63;3.30;;;33.90;96.70;;;;;;5066498;28;20052;-75
2023/08/02 14:22:09;;;;;;;7.97;3.22;;;34.00;96.70;;;;;;5065849;28;20049;-75
2023/08/02 14:24:37;;;;;;;6.57;3.28;;;34.00;96.70;;;;;;5065378;28;20036;-72
2023/08/02 14:27:07;;;;;;;8.20;3.03;;;34.00;96.70;;;;;;5065155;28;20068;-75
2023/08/02 14:29:37;;;;;;;8.45;3.78;;;33.90;96.70;;;;;;5062981;28;20045;-75
2023/08/02 14:32:06;;;;;;;10.75;3.13;;;34.10;96.70;;;;;;5066513;28;20065;-75
2023/08/02 14:34:34;;;;;;;8.48;3.33;;;34.10;96.70;;;;;;5065589;28;20040;-75
2023/08/02 14:37:04;;;;;;;7.95;3.33;;;34.20;96.70;;;;;;5065901;28;20559;-74
2023/08/02 14:39:33;;;;;;;7.55;3.40;;;34.40;96.70;;;;;;5065465;28;20556;-75
2023/08/02 14:42:02;;;;;;;8.30;3.25;;;34.60;96.70;;;;;;5070731;28;20090;-75
2023/08/02 14:44:30;;;;;;;8.57;3.25;;;34.50;96.70;;;;;;5066630;28;20477;-74
2023/08/02 14:46:58;;;;;;;10.98;3.70;;;34.60;96.70;;;;;;5064753;28;20457;-75
2023/08/02 14:49:27;;;;;;;9.35;3.72;;;34.60;96.70;;;;;;5066618;28;20080;-75
2023/08/02 14:51:55;;;;;;;11.00;3.45;;;35.10;96.70;;;;;;5064971;28;20045;-72
2023/08/02 14:54:25;;;;;;;10.73;3.53;;;34.90;96.70;;;;;;5064913;28;20049;-72
2023/08/02 14:56:53;;;;;;;10.85;3.25;;;34.90;96.70;;;;;;5067079;28;20522;-74
2023/08/02 14:59:21;;;;;;;10.52;4.13;;;34.90;96.70;;;;;;5063977;28;20144;-75
2023/08/02 15:01:52;;;;;;;6.28;3.00;;;35.10;96.70;;;;;;5065543;28;20513;-73
2023/08/02 15:04:20;;;;;;;7.97;3.85;;;35.30;96.70;;;;;;5065272;28;20857;-71
2023/08/02 15:06:49;;;;;;;6.30;3.53;;;35.00;96.70;;;;;;5065069;28;20832;-72
2023/08/02 15:09:17;;;;;;;8.50;3.72;;;35.30;96.70;;;;;;5066107;28;20044;-73
2023/08/02 15:11:46;;;;;;;10.35;3.45;;;35.40;96.70;;;;;;5066319;28;20037;-72
2023/08/02 15:14:15;;;;;;;9.98;3.75;;;35.70;96.70;;;;;;5064124;28;20430;-73
2023/08/02 15:16:43;;;;;;;9.15;3.45;;;35.70;96.70;;;;;;5066561;28;20507;-73
2023/08/02 15:19:12;;;;;;;11.38;3.63;;;36.20;96.70;;;;;;5064214;28;20691;-72
2023/08/02 15:21:42;;;;;;;9.52;3.53;;;36.30;96.70;;;;;;5064436;28;20063;-73
2023/08/02 15:24:11;;;;;;;10.60;3.85;;;36.20;96.70;;;;;;5055692;28;20040;-72
2023/08/02 15:26:39;;;;;;;7.72;3.25;;;36.10;96.70;;;;;;5065609;28;20045;-73
2023/08/02 15:29:11;;;;;;;9.75;3.67;;;36.00;96.70;;;;;;5063663;28;20052;-73
2023/08/02 15:31:40;;;;;;;6.10;3.42;;;35.80;96.70;;;;;;5066154;28;20506;-74
2023/08/02 15:34:08;;;;;;;8.13;3.50;;;35.70;96.70;;;;;;5065550;28;20044;-73
2023/08/02 15:36:38;;;;;;;7.43;3.65;;;36.00;96.70;;;;;;5065981;28;20050;-73
2023/08/02 15:39:06;;;;;;;10.27;3.58;;;36.10;96.70;;;;;;5064009;28;20055;-73
2023/08/02 15:41:35;;;;;;;9.23;3.25;;;36.20;96.70;;;;;;5047892;28;20044;-73
2023/08/02 15:44:03;;;;;;;6.65;2.78;;;36.40;96.70;;;;;;5069342;28;20067;-73
2023/08/02 15:46:33;;;;;;;5.78;3.30;;;36.20;96.70;;;;;;5065933;28;20048;-73
2023/08/02 15:49:01;;;;;;;8.27;3.92;;;36.30;96.70;;;;;;5065674;28;20132;-74
2023/08/02 15:51:29;;;;;;;7.25;4.10;;;36.70;96.70;;;;;;5047203;28;20098;-73
2023/08/02 15:53:57;;;;;;;6.50;3.40;;;36.90;96.70;;;;;;5065107;28;20129;-73
2023/08/02 15:56:25;;;;;;;9.27;3.90;;;37.50;96.70;;;;;;5047626;28;20151;-74
2023/08/02 15:58:54;;;;;;;6.90;3.22;;;37.30;96.70;;;;;;5063300;28;20036;-73
2023/08/02 16:01:25;;;;;;;9.52;3.90;;;36.70;96.70;;;;;;5063393;28;20056;-73
2023/08/02 16:03:55;;;;;;;6.35;3.42;;;36.30;96.70;;;;;;5063897;28;20516;-73
2023/08/02 16:06:23;;;;;;;10.32;3.58;;;36.00;96.70;;;;;;5057078;28;20093;-73
2023/08/02 16:08:52;;;;;;;5.63;3.42;;;36.20;96.70;;;;;;5064896;28;20044;-73
2023/08/02 16:11:21;;;;;;;9.90;4.20;;;36.90;96.70;;;;;;5047384;28;20036;-73
2023/08/02 16:13:49;;;;;;;7.35;3.58;;;37.00;96.70;;;;;;5064503;28;20040;-73
2023/08/02 16:16:18;;;;;;;10.25;3.90;;;36.90;96.70;;;;;;5046530;28;20043;-73
2023/08/02 16:18:46;;;;;;;8.15;3.50;;;37.20;96.70;;;;;;5079834;28;20124;-73
2023/08/02 16:21:16;;;;;;;9.00;3.50;;;37.10;96.70;;;;;;5059947;28;20098;-73
2023/08/02 16:23:45;;;;;;;7.65;3.63;;;37.80;96.70;;;;;;5058120;28;20502;-74
2023/08/02 16:26:13;;;;;;;8.50;4.22;;;37.90;96.70;;;;;;5063206;28;20036;-73
2023/08/02 16:28:42;;;;;;;9.82;3.58;;;38.10;96.70;;;;;;5046047;28;20052;-72
2023/08/02 16:31:10;;;;;;;8.45;3.38;;;37.60;96.70;;;;;;5063158;28;21244;-72
2023/08/02 16:33:39;;;;;;;9.38;3.42;;;36.80;96.70;;;;;;5064235;28;20063;-73
2023/08/02 16:36:07;;;;;;;7.40;4.00;;;36.80;96.70;;;;;;5063217;28;20079;-72
2023/08/02 16:38:37;;;;;;;8.05;4.20;;;37.10;96.70;;;;;;5063178;28;20435;-73
2023/08/02 16:41:06;;;;;;;8.40;3.92;;;38.10;96.70;;;;;;5063418;28;20477;-72
2023/08/02 16:43:34;;;;;;;7.47;4.32;;;38.00;96.70;;;;;;5071028;28;20124;-72
2023/08/02 16:46:02;;;;;;;6.10;3.90;;;37.80;96.70;;;;;;5062432;28;20045;-72
2023/08/02 16:48:31;;;;;;;9.32;3.70;;;37.50;96.70;;;;;;5056258;28;20050;-72
2023/08/02 16:50:59;;;;;;;9.27;3.60;;;37.40;96.70;;;;;;5064488;28;20461;-73
2023/08/02 16:53:28;;;;;;;6.88;3.78;;;37.30;96.70;;;;;;5064307;28;20498;-74
2023/08/02 16:55:58;;;;;;;6.90;3.85;;;36.50;96.70;;;;;;5064602;28;20094;-73
2023/08/02 16:58:26;;;;;;;5.95;3.60;;;37.10;96.70;;;;;;5061886;28;20052;-72
2023/08/02 17:00:55;;;;;;;10.05;3.33;;;37.00;96.70;;;;;;5062547;28;20515;-73
2023/08/02 17:03:23;;;;;;;11.20;4.40;;;37.20;96.70;;;;;;5046313;28;20422;-72
2023/08/02 17:05:52;;;;;;;6.20;3.60;;;37.30;96.70;;;;;;5064350;28;20063;-73
2023/08/02 17:08:20;;;;;;;6.53;3.50;;;37.70;96.70;;;;;;5062838;28;20382;-73
2023/08/02 17:10:49;;;;;;;11.13;4.00;;;37.60;96.70;;;;;;5062684;28;20048;-73
2023/08/02 17:13:19;;;;;;;6.00;3.22;;;37.20;96.70;;;;;;5062636;28;20110;-72
2023/08/02 17:15:47;;;;;;;7.78;3.50;;;37.00;96.70;;;;;;5062391;28;20072;-73
2023/08/02 17:18:16;;;;;;;5.05;3.38;;;37.10;96.70;;;;;;5063655;28;20051;-73
2023/08/02 17:20:44;;;;;;;7.53;3.25;;;36.60;96.70;;;;;;5063808;28;20052;-73
2023/08/02 17:23:13;;;;;;;7.65;3.67;;;36.30;96.70;;;;;;5047109;28;20561;-72
2023/08/02 17:25:42;;;;;;;6.93;3.75;;;36.40;96.70;;;;;;5061440;28;20051;-72
2023/08/02 17:28:10;;;;;;;7.93;3.60;;;36.00;96.70;;;;;;5044948;28;20036;-72
2023/08/02 17:30:40;;;;;;;6.38;3.33;;;35.90;96.70;;;;;;5063219;28;20071;-73
2023/08/02 17:33:09;;;;;;;5.45;3.70;;;35.90;96.70;;;;;;5063530;28;20560;-73
2023/08/02 17:35:38;;;;;;;6.07;3.47;;;35.60;96.70;;;;;;5064129;28;20436;-73
2023/08/02 17:38:06;;;;;;;8.95;3.90;;;35.50;96.70;;;;;;5062225;28;20557;-73
2023/08/02 17:40:35;;;;;;;7.93;3.45;;;35.40;96.70;;;;;;5061525;28;20048;-73
2023/08/02 17:43:03;;;;;;;7.25;3.47;;;35.20;96.70;;;;;;5062747;28;20048;-72
2023/08/02 17:45:36;;;;;;;7.57;3.30;;;35.10;96.70;;;;;;5062028;28;20736;-72
2023/08/02 17:48:11;;;;;;;9.30;3.60;;;33.50;96.70;;;;;;5062288;28;20040;-73
2023/08/02 17:50:40;;;;;;;8.77;3.55;;;31.80;96.70;;;;;;5063415;28;20574;-72
2023/08/02 17:53:08;;;;;;;5.53;3.05;;;30.70;96.70;;;;;;5044707;28;20045;-73
2023/08/02 17:55:37;;;;;;;8.55;3.40;;;30.10;96.70;;;;;;5067679;28;20052;-72
2023/08/02 17:58:08;;;;;;;9.93;3.22;;;29.70;96.70;;;;;;5066999;28;20498;-73
2023/08/02 18:00:38;;;;;;;7.93;3.88;;;29.40;96.70;;;;;;5066846;28;20044;-72
2023/08/02 18:03:08;;;;;;;10.25;3.63;;;29.30;96.70;;;;;;5065146;28;20075;-73
2023/08/02 18:05:37;;;;;;;12.07;3.50;;;29.00;96.70;;;;;;5049321;28;20071;-73
2023/08/02 18:08:06;;;;;;;11.48;3.15;;;28.70;96.70;;;;;;5067225;28;20044;-72
2023/08/02 18:10:35;;;;;;;11.88;3.75;;;28.50;96.70;;;;;;5061275;28;20041;-73
2023/08/02 18:13:04;;;;;;;9.77;3.42;;;28.30;96.70;;;;;;5064785;28;20474;-73
2023/08/02 18:15:32;;;;;;;8.60;3.50;;;28.10;96.70;;;;;;5066939;28;20058;-72
2023/08/02 18:18:01;;;;;;;7.90;3.70;;;28.00;96.70;;;;;;5066970;28;20574;-74
2023/08/02 18:20:34;;;;;;;9.02;4.03;;;27.80;96.70;;;;;;5060096;28;20071;-72
2023/08/02 18:23:02;;;;;;;11.18;3.78;;;27.90;96.70;;;;;;5049100;28;20055;-73
2023/08/02 18:25:35;;;;;;;11.60;4.82;;;27.80;96.70;;;;;;5065474;28;20040;-72
2023/08/02 18:28:04;;;;;;;7.45;3.25;;;27.70;96.70;;;;;;5071104;28;20588;-72
2023/08/02 18:30:33;;;;;;;8.95;3.20;;;27.60;96.70;;;;;;5081450;28;20475;-74
2023/08/02 18:33:02;;;;;;;7.75;3.17;;;27.60;96.70;;;;;;5066622;28;20072;-75
2023/08/02 18:35:32;;;;;;;8.52;3.95;;;27.50;96.70;;;;;;5064925;28;20044;-74
2023/08/02 18:38:00;;;;;;;11.38;3.10;;;27.50;96.70;;;;;;5064335;28;20045;-74
2023/08/02 18:40:29;;;;;;;8.23;3.80;;;27.50;96.70;;;;;;5063629;28;20520;-76
2023/08/02 18:42:57;;;;;;;7.70;3.35;;;27.40;96.70;;;;;;5064980;28;20124;-75
2023/08/02 18:45:26;;;;;;;7.95;3.75;;;27.30;96.70;;;;;;5064530;28;20088;-77
2023/08/02 18:47:54;;;;;;;7.15;3.38;;;27.30;96.70;;;;;;5066862;28;20279;-76
2023/08/02 18:50:23;;;;;;;8.75;3.53;;;27.40;96.70;;;;;;5066119;28;20040;-75
2023/08/02 18:52:53;;;;;;;8.35;3.50;;;27.30;96.70;;;;;;5066000;28;20068;-76
2023/08/02 18:55:21;;;;;;;10.50;3.78;;;27.10;96.70;;;;;;5064392;28;20052;-75
2023/08/02 18:57:50;;;;;;;7.70;3.03;;;27.00;96.70;;;;;;5062941;28;20127;-76
2023/08/02 19:00:18;;;;;;;8.38;4.20;;;27.00;96.70;;;;;;5063957;28;20043;-75
2023/08/02 19:02:47;;;;;;;7.25;3.40;;;27.10;96.70;;;;;;5064834;28;20049;-75
2023/08/02 19:05:16;;;;;;;12.32;3.55;;;27.10;96.70;;;;;;5063976;28;20040;-74
2023/08/02 19:07:45;;;;;;;7.63;3.28;;;27.10;96.70;;;;;;5046923;28;20076;-73
2023/08/02 19:10:15;;;;;;;8.60;3.17;;;26.90;96.70;;;;;;5062961;28;20045;-74
2023/08/02 19:12:44;;;;;;;6.70;3.63;;;26.90;96.70;;;;;;5064964;28;20094;-75
2023/08/02 19:15:15;;;;;;;9.23;3.35;;;26.80;96.70;;;;;;5061779;28;20490;-73
2023/08/02 19:17:45;;;;;;;7.55;2.92;;;27.00;96.70;;;;;;5064028;28;20098;-73
2023/08/02 19:20:17;;;;;;;11.13;4.22;;;26.80;96.70;;;;;;5045669;28;20052;-72
2023/08/02 19:22:46;;;;;;;7.20;3.55;;;26.90;96.70;;;;;;5060705;28;20048;-72
2023/08/02 19:25:16;;;;;;;8.02;3.40;;;26.80;96.70;;;;;;5064494;28;20040;-73
2023/08/02 19:27:46;;;;;;;9.75;3.17;;;26.80;96.70;;;;;;5063822;28;20049;-73
2023/08/02 19:30:22;;;;;;;9.48;3.15;;;26.90;96.70;;;;;;5061466;28;20041;-74